createdAt,value
2023-01-09T00:02:00.180Z,97932.63
2023-01-09T00:04:26.877Z,97930.56
2023-01-09T00:06:56.506Z,97923.13
2023-01-09T00:09:24.637Z,97921.72
2023-01-09T00:11:52.138Z,97914.66
2023-01-09T00:16:46.561Z,97916.97
2023-01-09T00:19:13.270Z,97914.88
2023-01-09T00:21:40.315Z,97900.47
2023-01-09T00:24:08.080Z,97897.47
2023-01-09T00:26:35.912Z,97893.84
2023-01-09T00:29:02.716Z,97889.84
2023-01-09T00:31:29.453Z,97891.31
2023-01-09T00:33:59.380Z,97890.13
2023-01-09T00:36:26.697Z,97889.53
2023-01-09T00:38:53.948Z,97889.16
2023-01-09T00:41:20.735Z,97883.59
2023-01-09T00:43:51.267Z,97888.34
2023-01-09T00:48:49.627Z,97871.25
2023-01-09T00:51:18.787Z,97878.16
2023-01-09T00:53:46.064Z,97871.41
2023-01-09T00:56:16.924Z,97864.06
2023-01-09T00:58:43.863Z,97865.25
2023-01-09T01:01:12.273Z,97864.06
2023-01-09T01:03:39.741Z,97856.97
2023-01-09T01:06:21.714Z,97852.00
2023-01-09T01:08:48.379Z,97852.91
2023-01-09T01:11:15.263Z,97850.81
2023-01-09T01:13:42.751Z,97856.66
2023-01-09T01:16:12.680Z,97851.53
2023-01-09T01:18:40.354Z,97856.44
2023-01-09T01:21:12.858Z,97854.78
2023-01-09T01:23:39.660Z,97852.44
2023-01-09T01:26:08.256Z,97849.66
2023-01-09T01:28:35.173Z,97844.56
2023-01-09T01:31:02.162Z,97850.63
2023-01-09T01:33:28.913Z,97846.50
2023-01-09T01:36:08.013Z,97847.09
2023-01-09T01:38:35.891Z,97843.84
2023-01-09T01:41:03.769Z,97833.13
2023-01-09T01:43:53.933Z,97831.50
2023-01-09T01:46:20.850Z,97833.84
2023-01-09T01:48:52.096Z,97825.81
2023-01-09T01:51:21.695Z,97828.38
2023-01-09T01:53:55.787Z,97827.78
2023-01-09T01:56:38.217Z,97819.16
2023-01-09T01:59:10.140Z,97821.97
2023-01-09T02:01:41.414Z,97821.84
2023-01-09T02:04:09.655Z,97823.16
2023-01-09T02:06:37.906Z,97816.75
2023-01-09T02:09:06.275Z,97809.75
2023-01-09T02:11:33.796Z,97804.31
2023-01-09T02:14:02.510Z,97807.34
2023-01-09T02:17:00.021Z,97802.44
2023-01-09T02:19:58.003Z,97799.19
2023-01-09T02:22:43.860Z,97806.53
2023-01-09T02:25:21.817Z,97803.97
2023-01-09T02:27:51.294Z,97797.69
2023-01-09T02:30:21.994Z,97792.22
2023-01-09T02:32:51.773Z,97794.06
2023-01-09T02:35:20.833Z,97789.78
2023-01-09T02:38:03.579Z,97786.03
2023-01-09T02:40:42.120Z,97782.31
2023-01-09T02:43:10.757Z,97786.38
2023-01-09T02:45:37.607Z,97784.50
2023-01-09T02:48:04.482Z,97786.84
2023-01-09T02:50:53.951Z,97776.72
2023-01-09T02:53:21.797Z,97780.91
2023-01-09T02:56:08.596Z,97776.00
2023-01-09T02:58:58.465Z,97781.94
2023-01-09T03:01:48.288Z,97779.97
2023-01-09T03:04:21.538Z,97784.50
2023-01-09T03:06:54.465Z,97778.34
2023-01-09T03:09:27.667Z,97775.75
2023-01-09T03:12:01.757Z,97768.16
2023-01-09T03:14:32.764Z,97774.69
2023-01-09T03:17:04.114Z,97781.09
2023-01-09T03:19:33.546Z,97764.09
2023-01-09T03:22:00.599Z,97767.13
2023-01-09T03:24:27.355Z,97759.56
2023-01-09T03:26:57.221Z,97758.28
2023-01-09T03:29:23.878Z,97766.66
2023-01-09T03:31:50.783Z,97764.69
2023-01-09T03:34:17.656Z,97775.50
2023-01-09T03:36:44.972Z,97784.47
2023-01-09T03:39:11.668Z,97801.47
2023-01-09T03:41:38.489Z,97803.81
2023-01-09T03:44:05.153Z,97813.31
2023-01-09T03:46:31.915Z,97818.59
2023-01-09T03:48:58.930Z,97810.41
2023-01-09T03:51:25.758Z,97817.28
2023-01-09T03:53:53.203Z,97811.84
2023-01-09T03:58:46.823Z,97808.56
2023-01-09T04:01:13.669Z,97804.25
2023-01-09T04:03:40.707Z,97813.13
2023-01-09T04:06:08.429Z,97812.06
2023-01-09T04:08:35.185Z,97811.91
2023-01-09T04:11:02.040Z,97818.09
2023-01-09T04:13:28.797Z,97825.41
2023-01-09T04:15:55.463Z,97825.06
2023-01-09T04:18:22.149Z,97842.66
2023-01-09T04:20:49.196Z,97847.53
2023-01-09T04:23:16.918Z,97852.31
2023-01-09T04:25:43.760Z,97853.16
2023-01-09T04:28:10.624Z,97850.25
2023-01-09T04:30:37.519Z,97862.50
2023-01-09T04:33:04.289Z,97865.41
2023-01-09T04:35:30.993Z,97883.34
2023-01-09T04:37:57.876Z,97881.25
2023-01-09T04:40:24.846Z,97874.72
2023-01-09T04:42:51.621Z,97884.16
2023-01-09T04:45:18.369Z,97885.78
2023-01-09T04:47:45.482Z,97895.81
2023-01-09T04:50:13.289Z,97898.59
2023-01-09T04:52:40.412Z,97910.69
2023-01-09T04:55:08.849Z,97915.81
2023-01-09T04:57:36.337Z,97915.13
2023-01-09T05:00:04.896Z,97916.03
2023-01-09T05:02:31.751Z,97917.28
2023-01-09T05:05:01.620Z,97926.97
2023-01-09T05:07:28.318Z,97930.22
2023-01-09T05:09:55.261Z,97937.53
2023-01-09T05:12:22.057Z,97944.06
2023-01-09T05:14:48.909Z,97951.41
2023-01-09T05:17:15.715Z,97945.56
2023-01-09T05:19:42.676Z,97966.28
2023-01-09T05:22:09.326Z,97972.00
2023-01-09T05:24:35.986Z,97969.19
2023-01-09T05:27:02.918Z,97973.16
2023-01-09T05:29:29.825Z,97973.63
2023-01-09T05:31:57.141Z,97980.63
2023-01-09T05:34:24.417Z,97992.97
2023-01-09T05:36:51.164Z,97992.97
2023-01-09T05:39:17.884Z,98002.69
2023-01-09T05:41:44.879Z,98010.88
2023-01-09T05:44:11.574Z,98016.44
2023-01-09T05:46:38.280Z,98002.13
2023-01-09T05:49:05.032Z,98025.63
2023-01-09T05:51:32.131Z,98033.88
2023-01-09T05:53:59.853Z,98021.69
2023-01-09T05:56:26.574Z,98033.88
2023-01-09T05:58:53.336Z,98030.06
2023-01-09T06:03:46.507Z,98032.84
2023-01-09T06:06:13.614Z,98051.03
2023-01-09T06:08:40.361Z,98053.09
2023-01-09T06:11:07.191Z,98052.75
2023-01-09T06:13:34.004Z,98061.75
2023-01-09T06:16:00.707Z,98085.41
2023-01-09T06:18:27.465Z,98089.63
2023-01-09T06:20:54.131Z,98089.25
2023-01-09T06:23:21.972Z,98095.63
2023-01-09T06:25:51.695Z,98097.13
2023-01-09T06:28:18.426Z,98091.19
2023-01-09T06:30:45.519Z,98112.56
2023-01-09T06:33:12.324Z,98109.19
2023-01-09T06:35:39.096Z,98117.66
2023-01-09T06:38:06.463Z,98116.59
2023-01-09T06:40:33.235Z,98116.81
2023-01-09T06:42:59.913Z,98110.72
2023-01-09T06:45:26.711Z,98112.38
2023-01-09T06:47:53.461Z,98121.00
2023-01-09T06:52:46.759Z,98136.34
2023-01-09T06:55:13.774Z,98144.19
2023-01-09T06:57:40.481Z,98143.97
2023-01-09T07:00:07.918Z,98148.31
2023-01-09T07:02:34.720Z,98147.50
2023-01-09T07:05:01.481Z,98138.88
2023-01-09T07:07:28.116Z,98133.66
2023-01-09T07:09:54.773Z,98142.66
2023-01-09T07:12:21.556Z,98139.72
2023-01-09T07:14:48.191Z,98151.41
2023-01-09T07:17:14.888Z,98136.00
2023-01-09T07:19:41.897Z,98141.34
2023-01-09T07:22:08.908Z,98146.50
2023-01-09T07:24:35.558Z,98159.38
2023-01-09T07:27:03.140Z,98165.38
2023-01-09T07:29:30.434Z,98167.88
2023-01-09T07:31:57.350Z,98167.97
2023-01-09T07:34:24.230Z,98188.91
2023-01-09T07:36:51.405Z,98195.53
2023-01-09T07:39:18.149Z,98201.66
2023-01-09T07:41:45.544Z,98198.03
2023-01-09T07:44:12.526Z,98199.44
2023-01-09T07:46:39.575Z,98208.13
2023-01-09T07:49:06.391Z,98215.97
2023-01-09T07:51:33.131Z,98211.81
2023-01-09T07:53:59.779Z,98213.09
2023-01-09T07:56:26.658Z,98211.41
2023-01-09T07:58:53.320Z,98214.25
2023-01-09T08:03:46.439Z,98225.13
2023-01-09T08:06:13.128Z,98215.13
2023-01-09T08:08:39.777Z,98228.22
2023-01-09T08:11:06.601Z,98231.31
2023-01-09T08:13:33.243Z,98237.69
2023-01-09T08:16:00.211Z,98250.44
2023-01-09T08:18:26.873Z,98245.50
2023-01-09T08:20:53.578Z,98260.69
2023-01-09T08:25:46.619Z,98257.72
2023-01-09T08:28:13.512Z,98256.91
2023-01-09T08:30:40.571Z,98259.84
2023-01-09T08:33:07.282Z,98259.44
2023-01-09T08:35:34.030Z,98254.84
2023-01-09T08:38:00.696Z,98250.00
2023-01-09T08:40:27.363Z,98253.84
2023-01-09T08:43:12.543Z,98257.28
2023-01-09T08:45:57.806Z,98264.66
2023-01-09T08:48:24.450Z,98256.69
2023-01-09T08:50:52.391Z,98268.28
2023-01-09T08:53:18.995Z,98262.94
2023-01-09T08:55:46.038Z,98258.97
2023-01-09T08:58:12.797Z,98269.22
2023-01-09T09:00:39.592Z,98274.25
2023-01-09T09:03:06.488Z,98291.84
2023-01-09T09:05:33.557Z,98279.94
2023-01-09T09:08:00.283Z,98287.47
2023-01-09T09:10:29.437Z,98285.53
2023-01-09T09:12:58.517Z,98288.81
2023-01-09T09:15:27.015Z,98288.66
2023-01-09T09:17:59.309Z,98298.69
2023-01-09T09:20:28.644Z,98296.66
2023-01-09T09:22:55.619Z,98299.50
2023-01-09T09:25:23.122Z,98291.22
2023-01-09T09:27:50.805Z,98304.56
2023-01-09T09:32:46.816Z,98292.31
2023-01-09T09:35:13.531Z,98294.31
2023-01-09T09:37:42.006Z,98288.75
2023-01-09T09:40:18.750Z,98285.44
2023-01-09T09:43:21.966Z,98281.22
2023-01-09T09:46:10.011Z,98277.72
2023-01-09T09:48:40.651Z,98277.78
2023-01-09T09:51:21.019Z,98280.63
2023-01-09T09:54:19.096Z,98287.19
2023-01-09T09:56:53.023Z,98284.63
2023-01-09T09:59:22.048Z,98295.44
2023-01-09T10:01:57.738Z,98290.91
2023-01-09T10:04:27.448Z,98284.19
2023-01-09T10:07:06.293Z,98279.19
2023-01-09T10:09:54.492Z,98275.47
2023-01-09T10:12:21.045Z,98272.66
2023-01-09T10:14:47.951Z,98275.41
2023-01-09T10:17:19.153Z,98262.19
2023-01-09T10:20:04.128Z,98274.09
2023-01-09T10:22:36.698Z,98262.63
2023-01-09T10:25:06.906Z,98264.25
2023-01-09T10:28:06.795Z,98264.25
2023-01-09T10:30:40.711Z,98272.81
2023-01-09T10:33:21.982Z,98262.47
2023-01-09T10:36:22.118Z,98258.00
2023-01-09T10:38:53.217Z,98247.53
2023-01-09T10:41:22.020Z,98247.84
2023-01-09T10:44:02.219Z,98239.66
2023-01-09T10:46:37.456Z,98230.41
2023-01-09T10:49:12.990Z,98246.50
2023-01-09T10:52:15.472Z,98211.06
2023-01-09T10:54:57.107Z,98228.19
2023-01-09T10:57:32.414Z,98214.50
2023-01-09T10:59:59.082Z,98226.72
2023-01-09T11:02:33.156Z,98231.06
2023-01-09T11:04:59.863Z,98237.25
2023-01-09T11:07:39.842Z,98231.84
2023-01-09T11:10:15.521Z,98231.25
2023-01-09T11:12:42.724Z,98236.56
2023-01-09T11:17:47.796Z,98240.56
2023-01-09T11:20:22.045Z,98242.63
2023-01-09T11:22:57.013Z,98245.50
2023-01-09T11:25:26.703Z,98230.91
2023-01-09T11:28:06.979Z,98233.94
2023-01-09T11:30:37.901Z,98241.00
2023-01-09T11:33:22.035Z,98232.69
2023-01-09T11:36:00.137Z,98242.06
2023-01-09T11:38:27.458Z,98238.91
2023-01-09T11:40:58.717Z,98247.16
2023-01-09T11:43:35.249Z,98232.34
2023-01-09T11:46:08.168Z,98245.03
2023-01-09T11:48:36.471Z,98234.59
2023-01-09T11:51:07.423Z,98227.56
2023-01-09T11:54:22.053Z,98251.00
2023-01-09T11:56:50.339Z,98238.13
2023-01-09T12:02:01.394Z,98234.66
2023-01-09T12:04:34.087Z,98230.22
2023-01-09T12:07:24.829Z,98245.56
2023-01-09T12:10:22.028Z,98233.53
2023-01-09T12:13:04.825Z,98240.66
2023-01-09T12:15:41.742Z,98242.34
2023-01-09T12:18:25.625Z,98254.19
2023-01-09T12:20:55.276Z,98248.91
2023-01-09T12:23:55.723Z,98245.75
2023-01-09T12:26:32.464Z,98243.66
2023-01-09T12:29:22.007Z,98252.81
2023-01-09T12:32:16.020Z,98250.59
2023-01-09T12:35:14.434Z,98247.50
2023-01-09T12:37:46.976Z,98270.00
2023-01-09T12:40:16.300Z,98265.16
2023-01-09T12:43:01.387Z,98269.03
2023-01-09T12:46:05.650Z,98263.19
2023-01-09T12:48:38.254Z,98259.06
2023-01-09T12:51:22.032Z,98279.09
2023-01-09T12:54:22.214Z,98286.78
2023-01-09T12:56:57.649Z,98290.59
2023-01-09T12:59:37.488Z,98284.78
2023-01-09T13:02:08.003Z,98290.28
2023-01-09T13:04:41.741Z,98284.19
2023-01-09T13:07:19.498Z,98288.66
2023-01-09T13:10:09.180Z,98280.00
2023-01-09T13:12:44.069Z,98289.56
2023-01-09T13:15:21.099Z,98277.47
2023-01-09T13:17:52.123Z,98287.59
2023-01-09T13:20:21.252Z,98274.97
2023-01-09T13:22:51.030Z,98285.09
2023-01-09T13:25:21.218Z,98277.28
2023-01-09T13:27:57.946Z,98279.88
2023-01-09T13:30:54.116Z,98282.66
2023-01-09T13:33:21.079Z,98285.81
2023-01-09T13:35:52.912Z,98286.78
2023-01-09T13:38:21.162Z,98287.00
2023-01-09T13:40:48.033Z,98292.63
2023-01-09T13:43:16.820Z,98306.38
2023-01-09T13:45:45.028Z,98294.81
2023-01-09T13:48:12.191Z,98298.66
2023-01-09T13:50:42.621Z,98300.56
2023-01-09T13:53:18.240Z,98320.16
2023-01-09T13:55:57.582Z,98314.88
2023-01-09T13:58:26.785Z,98324.56
2023-01-09T14:00:59.186Z,98330.97
2023-01-09T14:03:33.184Z,98338.00
2023-01-09T14:06:00.138Z,98332.09
2023-01-09T14:08:29.401Z,98329.94
2023-01-09T14:11:01.545Z,98339.47
2023-01-09T14:13:41.086Z,98347.75
2023-01-09T14:16:14.194Z,98349.50
2023-01-09T14:18:50.117Z,98357.00
2023-01-09T14:21:17.624Z,98359.41
2023-01-09T14:24:06.412Z,98360.09
2023-01-09T14:26:55.273Z,98352.34
2023-01-09T14:29:29.649Z,98349.84
2023-01-09T14:32:22.081Z,98352.50
2023-01-09T14:34:55.012Z,98350.72
2023-01-09T14:37:22.177Z,98365.44
2023-01-09T14:39:51.100Z,98373.03
2023-01-09T14:42:22.918Z,98377.41
2023-01-09T14:44:55.949Z,98391.19
2023-01-09T14:47:31.566Z,98394.31
2023-01-09T14:50:04.558Z,98401.13
2023-01-09T14:52:37.911Z,98390.13
2023-01-09T14:55:17.753Z,98393.41
2023-01-09T14:57:44.468Z,98383.56
2023-01-09T15:00:14.548Z,98394.72
2023-01-09T15:02:43.317Z,98398.44
2023-01-09T15:05:22.078Z,98405.88
2023-01-09T15:08:03.426Z,98402.72
2023-01-09T15:10:33.522Z,98408.06
2023-01-09T15:13:03.293Z,98411.00
2023-01-09T15:15:30.361Z,98408.19
2023-01-09T15:18:06.696Z,98418.97
2023-01-09T15:20:34.991Z,98423.00
2023-01-09T15:23:04.560Z,98431.28
2023-01-09T15:25:38.796Z,98437.09
2023-01-09T15:28:22.210Z,98439.09
2023-01-09T15:30:57.081Z,98450.25
2023-01-09T15:33:24.120Z,98438.25
2023-01-09T15:35:52.732Z,98444.94
2023-01-09T15:38:22.178Z,98453.56
2023-01-09T15:40:58.569Z,98460.41
2023-01-09T15:43:29.439Z,98464.34
2023-01-09T15:45:57.725Z,98468.88
2023-01-09T15:48:27.326Z,98465.63
2023-01-09T15:51:01.496Z,98472.63
2023-01-09T15:53:29.351Z,98470.97
2023-01-09T15:56:22.204Z,98478.75
2023-01-09T15:58:50.604Z,98482.84
2023-01-09T16:01:22.181Z,98482.50
2023-01-09T16:03:48.962Z,98479.16
2023-01-09T16:06:21.236Z,98492.91
2023-01-09T16:08:52.434Z,98489.50
2023-01-09T16:11:22.154Z,98504.53
2023-01-09T16:13:48.925Z,98515.03
2023-01-09T16:16:21.238Z,98519.94
2023-01-09T16:18:52.993Z,98528.31
2023-01-09T16:21:21.221Z,98529.34
2023-01-09T16:23:58.033Z,98521.94
2023-01-09T16:26:27.590Z,98525.22
2023-01-09T16:28:55.211Z,98526.06
2023-01-09T16:31:32.653Z,98523.16
2023-01-09T16:34:06.639Z,98528.53
2023-01-09T16:36:37.024Z,98533.06
2023-01-09T16:39:06.701Z,98534.34
2023-01-09T16:41:52.108Z,98542.56
2023-01-09T16:44:19.527Z,98546.28
2023-01-09T16:46:46.691Z,98554.03
2023-01-09T16:49:19.385Z,98547.91
2023-01-09T16:51:46.897Z,98545.41
2023-01-09T16:54:13.721Z,98550.00
2023-01-09T16:56:42.896Z,98556.97
2023-01-09T16:59:14.568Z,98553.28
2023-01-09T17:01:43.564Z,98552.47
2023-01-09T17:04:15.565Z,98560.91
2023-01-09T17:06:43.706Z,98555.81
2023-01-09T17:09:17.750Z,98565.28
2023-01-09T17:11:44.998Z,98564.44
2023-01-09T17:14:13.277Z,98564.66
2023-01-09T17:16:45.412Z,98566.09
2023-01-09T17:21:47.451Z,98575.13
2023-01-09T17:27:08.176Z,98576.34
2023-01-09T17:29:35.899Z,98580.88
2023-01-09T17:32:03.360Z,98588.28
2023-01-09T17:34:30.222Z,98596.50
2023-01-09T17:36:57.121Z,98595.25
2023-01-09T17:39:23.956Z,98597.13
2023-01-09T17:41:50.766Z,98598.56
2023-01-09T17:44:17.591Z,98599.59
2023-01-09T17:46:45.414Z,98604.31
2023-01-09T17:49:21.344Z,98591.56
2023-01-09T17:51:48.443Z,98601.44
2023-01-09T17:54:15.541Z,98595.88
2023-01-09T17:56:46.312Z,98608.00
2023-01-09T17:59:14.748Z,98617.47
2023-01-09T18:01:43.099Z,98625.28
2023-01-09T18:04:10.649Z,98634.72
2023-01-09T18:06:37.421Z,98638.81
2023-01-09T18:09:05.418Z,98642.75
2023-01-09T18:11:32.287Z,98639.66
2023-01-09T18:13:58.979Z,98647.84
2023-01-09T18:16:28.968Z,98651.38
2023-01-09T18:18:58.147Z,98650.53
2023-01-09T18:21:27.102Z,98655.69
2023-01-09T18:23:54.092Z,98658.97
2023-01-09T18:26:22.406Z,98661.84
2023-01-09T18:28:55.143Z,98670.66
2023-01-09T18:31:24.102Z,98663.03
2023-01-09T18:33:53.181Z,98659.94
2023-01-09T18:36:22.381Z,98663.44
2023-01-09T18:38:53.819Z,98678.03
2023-01-09T18:41:22.456Z,98673.91
2023-01-09T18:43:53.924Z,98679.03
2023-01-09T18:46:22.212Z,98681.06
2023-01-09T18:48:55.267Z,98686.44
2023-01-09T18:51:23.115Z,98689.09
2023-01-09T18:53:50.366Z,98693.44
2023-01-09T18:56:19.479Z,98709.84
2023-01-09T18:58:47.784Z,98709.06
2023-01-09T19:01:15.684Z,98710.06
2023-01-09T19:03:42.598Z,98712.13
2023-01-09T19:06:09.603Z,98725.13
2023-01-09T19:08:37.476Z,98723.47
2023-01-09T19:11:04.791Z,98727.78
2023-01-09T19:13:35.135Z,98733.34
2023-01-09T19:16:03.481Z,98739.31
2023-01-09T19:18:34.532Z,98748.56
2023-01-09T19:21:01.763Z,98758.44
2023-01-09T19:23:29.080Z,98762.91
2023-01-09T19:25:58.078Z,98770.69
2023-01-09T19:28:24.921Z,98779.25
2023-01-09T19:30:57.059Z,98783.38
2023-01-09T19:33:25.461Z,98782.56
2023-01-09T19:35:53.181Z,98793.03
2023-01-09T19:38:26.910Z,98796.97
2023-01-09T19:40:53.902Z,98792.66
2023-01-09T19:45:46.732Z,98810.13
2023-01-09T19:48:13.588Z,98813.63
2023-01-09T19:50:40.257Z,98811.34
2023-01-09T19:53:07.212Z,98815.00
2023-01-09T19:55:34.234Z,98817.47
2023-01-09T19:58:01.275Z,98834.75
2023-01-09T20:00:28.501Z,98837.56
2023-01-09T20:02:56.148Z,98829.34
2023-01-09T20:05:23.355Z,98831.78
2023-01-09T20:07:56.431Z,98847.22
2023-01-09T20:10:23.601Z,98848.44
2023-01-09T20:12:50.331Z,98858.44
2023-01-09T20:15:17.038Z,98868.72
2023-01-09T20:17:44.047Z,98866.50
2023-01-09T20:20:11.257Z,98876.97
2023-01-09T20:22:38.018Z,98874.88
2023-01-09T20:25:05.075Z,98884.75
2023-01-09T20:27:31.813Z,98889.31
2023-01-09T20:29:58.606Z,98892.56
2023-01-09T20:32:25.894Z,98905.31
2023-01-09T20:34:52.694Z,98888.44
2023-01-09T20:37:19.439Z,98892.69
2023-01-09T20:39:46.117Z,98895.72
2023-01-09T20:42:13.155Z,98905.59
2023-01-09T20:44:40.360Z,98906.88
2023-01-09T20:47:07.107Z,98902.09
2023-01-09T20:49:33.974Z,98907.25
2023-01-09T20:52:00.694Z,98916.69
2023-01-09T20:54:27.558Z,98920.75
2023-01-09T20:56:54.288Z,98924.44
2023-01-09T21:01:46.787Z,98930.16
2023-01-09T21:04:13.890Z,98937.28
2023-01-09T21:06:41.024Z,98942.34
2023-01-09T21:09:07.773Z,98944.38
2023-01-09T21:11:34.779Z,98958.38
2023-01-09T21:14:01.772Z,98955.06
2023-01-09T21:16:28.644Z,98959.16
2023-01-09T21:18:55.843Z,98962.31
2023-01-09T21:21:26.460Z,98975.00
2023-01-09T21:23:55.748Z,98975.38
2023-01-09T21:26:26.162Z,98980.50
2023-01-09T21:28:55.446Z,98978.88
2023-01-09T21:31:30.976Z,98984.69
2023-01-09T21:33:58.591Z,98995.69
2023-01-09T21:36:25.264Z,98997.09
2023-01-09T21:38:57.872Z,98995.22
2023-01-09T21:41:43.286Z,98996.44
2023-01-09T21:44:25.271Z,98995.78
2023-01-09T21:46:52.194Z,99007.47
2023-01-09T21:51:47.138Z,99009.28
2023-01-09T21:54:13.848Z,99005.22
2023-01-09T21:56:40.695Z,99003.03
2023-01-09T21:59:07.685Z,99013.81
2023-01-09T22:01:34.584Z,99015.63
2023-01-09T22:04:01.452Z,99028.19
2023-01-09T22:06:28.800Z,99026.16
2023-01-09T22:08:56.184Z,99036.72
2023-01-09T22:11:23.624Z,99043.44
2023-01-09T22:13:52.107Z,99041.78
2023-01-09T22:16:19.270Z,99038.66
2023-01-09T22:18:46.222Z,99046.25
2023-01-09T22:21:13.047Z,99056.28
2023-01-09T22:23:39.771Z,99056.50
2023-01-09T22:26:11.373Z,99057.28
2023-01-09T22:28:38.140Z,99060.28
2023-01-09T22:31:12.392Z,99068.47
2023-01-09T22:33:39.157Z,99069.75
2023-01-09T22:36:08.892Z,99071.69
2023-01-09T22:38:35.717Z,99082.81
2023-01-09T22:41:02.911Z,99089.06
2023-01-09T22:43:30.261Z,99097.72
2023-01-09T22:46:01.920Z,99096.84
2023-01-09T22:48:31.945Z,99103.22
2023-01-09T22:51:00.518Z,99108.16
2023-01-09T22:53:27.921Z,99106.50
2023-01-09T22:55:56.997Z,99112.22
2023-01-09T22:58:24.334Z,99115.00
2023-01-09T23:00:51.733Z,99117.03
2023-01-09T23:03:18.585Z,99123.63
2023-01-09T23:05:45.519Z,99119.31
2023-01-09T23:08:12.366Z,99127.69
2023-01-09T23:10:40.075Z,99121.97
2023-01-09T23:13:06.830Z,99123.28
2023-01-09T23:15:33.569Z,99131.38
2023-01-09T23:18:00.195Z,99138.78
2023-01-09T23:20:26.880Z,99147.53
2023-01-09T23:22:53.554Z,99147.47
2023-01-09T23:27:46.907Z,99148.53
2023-01-09T23:30:14.095Z,99152.78
2023-01-09T23:32:40.783Z,99154.25
2023-01-09T23:35:07.832Z,99164.44
2023-01-09T23:37:34.490Z,99173.28
2023-01-09T23:40:01.199Z,99179.34
2023-01-09T23:42:46.625Z,99188.00
2023-01-09T23:45:14.472Z,99185.16
2023-01-09T23:47:41.262Z,99197.13
2023-01-09T23:50:09.235Z,99189.53
2023-01-09T23:52:35.968Z,99196.28
2023-01-09T23:55:03.248Z,99199.19
2023-01-09T23:57:29.876Z,99200.84
2023-01-09T23:59:56.645Z,99205.19
